PWSweather.com
Personal Weather Stations
Station Observations
WILS01
Leuven, WilseleBE 3012

LeuvenWilseleBE 3012

Lat: 50.89518, Lon: 4.69741

Elevation: 120

Station Type: DAVIS VP2

Latest ConditionsUpdated 4:57:10 AM GMT+01:01 Sunday, Feb 1, 2015
Currently Today's Max Today's Min Today's Average
Temperature 34.5°F1.4°C 35.2°F1.8°C 33.4°F0.8°C 34.6°F1.4°C
Dew Point 33.4°F0.8°C 34.2°F1.2°C 32.2°F0.1°C 33.5°F0.8°C
Winds 2.5 mph WSW4.0 kmh WSW 2.5 mph WSW4.0 kmh WSW - 1.4 mph 2.3 kmh
Wind Gusts 1.6 mph2.6 kmh 3.1 mph5.0 kmh - -
Humidity 96% 96% 95% 96%
Pressure 29.16 in987.5 mb 29.16 in987.5 mb 29.14 in986.8 mb -
Precipitation - 0.01 in0.3 mm - -
Hour Temp Dew Point Humidity Winds Wind Gusts Pressure Precip Precip Rate Daily Precip Total
04:57 AM 34.5°F1.4°C 33.4°F0.8°C 96% 2.5 mph WSW4.0 kmh WSW 1.6 mph2.6 kmh 29.16 in987.5 mb 0.00 in0.0 mm 0.00 in/hr0.0 mm/hr 0.01 in0.3 mm
04:46 AM 35.1°F1.7°C 34.0°F1.1°C 96% 1.6 mph W2.6 kmh W 3.1 mph5.0 kmh 29.16 in987.5 mb 0.00 in0.0 mm 0.00 in/hr0.0 mm/hr 0.01 in0.3 mm
04:36 AM 35.2°F1.8°C 34.2°F1.2°C 96% 0.9 mph WSW1.4 kmh WSW 1.8 mph2.9 kmh 29.15 in987.1 mb 0.00 in0.0 mm 0.00 in/hr0.0 mm/hr 0.01 in0.3 mm
04:25 AM 35.1°F1.7°C 34.0°F1.1°C 96% 0.9 mph SW1.4 kmh SW 2.2 mph3.5 kmh 29.15 in987.1 mb 0.00 in0.0 mm 0.00 in/hr0.0 mm/hr 0.01 in0.3 mm
04:15 AM 35.1°F1.7°C 34.0°F1.1°C 96% 2.0 mph SW3.2 kmh SW 0.9 mph1.4 kmh 29.15 in987.1 mb 0.00 in0.0 mm 0.00 in/hr0.0 mm/hr 0.01 in0.3 mm
04:05 AM 35.1°F1.7°C 34.0°F1.1°C 96% 0.9 mph SW1.4 kmh SW 1.1 mph1.8 kmh 29.15 in987.1 mb 0.00 in0.0 mm 0.00 in/hr0.0 mm/hr 0.01 in0.3 mm
03:54 AM 35.1°F1.7°C 34.0°F1.1°C 96% 2.0 mph SW3.2 kmh SW 1.3 mph2.1 kmh 29.15 in987.1 mb 0.00 in0.0 mm 0.00 in/hr0.0 mm/hr 0.01 in0.3 mm
03:44 AM 35.1°F1.7°C 34.0°F1.1°C 96% 0.9 mph SW1.4 kmh SW 2.2 mph3.5 kmh 29.15 in987.1 mb 0.00 in0.0 mm 0.00 in/hr0.0 mm/hr 0.00 in0.0 mm
03:34 AM 35.1°F1.7°C 34.0°F1.1°C 96% 2.0 mph SSW3.2 kmh SSW 2.0 mph3.2 kmh 29.14 in986.8 mb 0.00 in0.0 mm 0.00 in/hr0.0 mm/hr 0.00 in0.0 mm
03:23 AM 35.1°F1.7°C 34.0°F1.1°C 96% 2.0 mph SW3.2 kmh SW 1.8 mph2.9 kmh 29.14 in986.8 mb 0.00 in0.0 mm 0.00 in/hr0.0 mm/hr 0.00 in0.0 mm
03:13 AM 35.1°F1.7°C 34.0°F1.1°C 96% 0.9 mph SW1.4 kmh SW 2.0 mph3.2 kmh 29.15 in987.1 mb 0.00 in0.0 mm 0.00 in/hr0.0 mm/hr 0.00 in0.0 mm
03:03 AM 34.9°F1.6°C 33.8°F1.0°C 96% 0.9 mph SW1.4 kmh SW 1.1 mph1.8 kmh 29.15 in987.1 mb 0.00 in0.0 mm 0.00 in/hr0.0 mm/hr 0.00 in0.0 mm
02:52 AM 34.9°F1.6°C 33.8°F1.0°C 96% 2.0 mph SSW3.2 kmh SSW 1.1 mph1.8 kmh 29.15 in987.1 mb 0.00 in0.0 mm 0.00 in/hr0.0 mm/hr 0.00 in0.0 mm
02:42 AM 34.5°F1.4°C 33.4°F0.8°C 96% 2.0 mph WSW3.2 kmh WSW 2.7 mph4.3 kmh 29.14 in986.8 mb 0.00 in0.0 mm 0.00 in/hr0.0 mm/hr 0.00 in0.0 mm
02:32 AM 34.3°F1.3°C 33.3°F0.7°C 96% 2.0 mph SW3.2 kmh SW 1.8 mph2.9 kmh 29.15 in987.1 mb 0.00 in0.0 mm 0.00 in/hr0.0 mm/hr 0.00 in0.0 mm
02:21 AM 34.3°F1.3°C 33.3°F0.7°C 96% 2.0 mph SW3.2 kmh SW 2.5 mph4.0 kmh 29.14 in986.8 mb 0.00 in0.0 mm 0.00 in/hr0.0 mm/hr 0.00 in0.0 mm
02:11 AM 34.2°F1.2°C 33.1°F0.6°C 96% 2.0 mph SW3.2 kmh SW 1.3 mph2.1 kmh 29.14 in986.8 mb 0.00 in0.0 mm 0.00 in/hr0.0 mm/hr 0.00 in0.0 mm
02:00 AM 34.0°F1.1°C 32.9°F0.5°C 96% 0.9 mph SSW1.4 kmh SSW 1.1 mph1.8 kmh 29.14 in986.8 mb 0.00 in0.0 mm 0.00 in/hr0.0 mm/hr 0.00 in0.0 mm
01:50 AM 34.0°F1.1°C 32.9°F0.5°C 96% 0.9 mph SW1.4 kmh SW 1.3 mph2.1 kmh 29.14 in986.8 mb 0.00 in0.0 mm 0.00 in/hr0.0 mm/hr 0.00 in0.0 mm
01:39 AM 33.8°F1.0°C 32.7°F0.4°C 96% 1.1 mph SW1.8 kmh SW 1.1 mph1.8 kmh 29.14 in986.8 mb 0.00 in0.0 mm 0.00 in/hr0.0 mm/hr 0.00 in0.0 mm
01:29 AM 33.6°F0.9°C 32.4°F0.2°C 95% 0.9 mph SW1.4 kmh SW 1.8 mph2.9 kmh 29.14 in986.8 mb 0.00 in0.0 mm 0.00 in/hr0.0 mm/hr 0.00 in0.0 mm
01:18 AM 33.4°F0.8°C 32.2°F0.1°C 95% 0.9 mph SW1.4 kmh SW 0.9 mph1.4 kmh 29.14 in986.8 mb 0.00 in0.0 mm 0.00 in/hr0.0 mm/hr 0.00 in0.0 mm
01:08 AM 33.4°F0.8°C 32.2°F0.1°C 95% 0.9 mph SSW1.4 kmh SSW 0.7 mph1.1 kmh 29.14 in986.8 mb 0.00 in0.0 mm 0.00 in/hr0.0 mm/hr 0.00 in0.0 mm